createdAt,value
2022-12-27T00:01:17.538Z,0.87
2022-12-27T00:03:44.550Z,1.03
2022-12-27T00:06:15.239Z,1.43
2022-12-27T00:08:42.511Z,2.40
2022-12-27T00:11:12.017Z,0.90
2022-12-27T00:13:38.707Z,0.67
2022-12-27T00:16:06.915Z,1.43
2022-12-27T00:18:34.291Z,0.70
2022-12-27T00:21:02.703Z,2.33
2022-12-27T00:23:33.077Z,0.70
2022-12-27T00:26:15.999Z,1.33
2022-12-27T00:28:44.862Z,0.73
2022-12-27T00:31:12.053Z,8.80
2022-12-27T00:33:39.863Z,0.50
2022-12-27T00:36:08.253Z,4.73
2022-12-27T00:38:36.016Z,0.60
2022-12-27T00:41:03.672Z,2.00
2022-12-27T00:43:30.436Z,3.10
2022-12-27T00:45:57.520Z,2.30
2022-12-27T00:48:25.859Z,1.77
2022-12-27T00:50:59.329Z,1.93
2022-12-27T00:53:26.499Z,0.80
2022-12-27T00:55:53.021Z,3.63
2022-12-27T00:58:19.412Z,0.60
2022-12-27T01:00:45.973Z,2.07
2022-12-27T01:03:12.435Z,3.43
2022-12-27T01:05:39.505Z,0.90
2022-12-27T01:08:06.113Z,2.77
2022-12-27T01:10:33.296Z,1.67
2022-12-27T01:13:03.828Z,1.63
2022-12-27T01:15:30.474Z,5.27
2022-12-27T01:17:56.895Z,1.73
2022-12-27T01:20:23.795Z,4.83
2022-12-27T01:22:50.266Z,2.40
2022-12-27T01:25:16.884Z,4.17
2022-12-27T01:27:43.411Z,4.00
2022-12-27T01:30:10.514Z,3.97
2022-12-27T01:32:37.093Z,1.00
2022-12-27T01:35:03.703Z,1.60
2022-12-27T01:37:30.346Z,1.47
2022-12-27T01:39:56.826Z,2.33
2022-12-27T01:42:41.953Z,9.23
2022-12-27T01:45:36.724Z,1.73
2022-12-27T01:48:19.465Z,2.43
2022-12-27T01:50:52.644Z,0.80
2022-12-27T01:53:29.985Z,1.67
2022-12-27T01:55:59.385Z,2.60
2022-12-27T01:58:37.875Z,5.57
2022-12-27T02:01:06.624Z,1.80
2022-12-27T02:03:36.071Z,4.03
2022-12-27T02:06:04.768Z,1.27
2022-12-27T02:09:48.699Z,4.13
2022-12-27T02:12:18.131Z,1.67
2022-12-27T02:14:47.023Z,3.00
2022-12-27T02:17:17.746Z,1.23
2022-12-27T02:20:11.407Z,0.63
2022-12-27T02:23:08.999Z,2.67
2022-12-27T02:25:50.739Z,1.13
2022-12-27T02:28:55.078Z,0.90
2022-12-27T02:31:28.530Z,1.03
2022-12-27T02:33:56.368Z,3.50
2022-12-27T02:36:28.086Z,4.80
2022-12-27T02:38:57.031Z,12.57
2022-12-27T02:41:42.807Z,0.80
2022-12-27T02:44:28.042Z,1.50
2022-12-27T02:47:13.285Z,0.97
2022-12-27T02:50:01.382Z,5.13
2022-12-27T02:53:05.200Z,3.70
2022-12-27T02:56:48.778Z,2.17
2022-12-27T02:59:22.399Z,1.40
2022-12-27T03:02:23.098Z,0.97
2022-12-27T03:05:20.124Z,3.07
2022-12-27T03:07:55.669Z,1.43
2022-12-27T03:10:53.052Z,1.07
2022-12-27T03:13:44.507Z,0.90
2022-12-27T03:16:25.438Z,2.40
2022-12-27T03:19:06.337Z,1.60
2022-12-27T03:21:58.614Z,3.37
2022-12-27T03:24:49.978Z,5.73
2022-12-27T03:27:28.545Z,1.83
2022-12-27T03:30:15.467Z,2.50
2022-12-27T03:33:13.444Z,5.40
2022-12-27T03:36:22.586Z,5.00
2022-12-27T03:38:55.532Z,3.30
2022-12-27T03:41:47.416Z,1.60
2022-12-27T03:44:34.417Z,4.53
2022-12-27T03:47:22.181Z,3.63
2022-12-27T03:49:53.755Z,1.00
2022-12-27T03:52:23.720Z,0.93
2022-12-27T03:54:51.194Z,4.53
2022-12-27T03:57:20.352Z,2.13
2022-12-27T03:59:47.119Z,1.20
2022-12-27T04:02:13.878Z,2.20
2022-12-27T04:04:40.557Z,2.23
2022-12-27T04:07:07.591Z,2.40
2022-12-27T04:09:52.846Z,2.13
2022-12-27T04:12:38.346Z,1.60
2022-12-27T04:15:23.910Z,0.90
2022-12-27T04:18:08.680Z,1.30
2022-12-27T04:20:53.639Z,1.07
2022-12-27T04:23:38.588Z,1.33
2022-12-27T04:26:23.817Z,4.97
2022-12-27T04:29:09.029Z,2.30
2022-12-27T04:31:54.033Z,3.03
2022-12-27T04:34:38.807Z,5.03
2022-12-27T04:37:05.882Z,1.40
2022-12-27T04:39:32.576Z,1.83
2022-12-27T04:42:17.764Z,1.57
2022-12-27T04:45:02.947Z,1.53
2022-12-27T04:47:48.349Z,2.27
2022-12-27T04:50:48.203Z,2.80
2022-12-27T04:53:38.599Z,2.83
2022-12-27T04:56:06.176Z,15.47
2022-12-27T04:58:33.128Z,38.23
2022-12-27T05:01:21.235Z,36.53
2022-12-27T05:03:49.522Z,28.70
2022-12-27T05:06:16.877Z,13.03
2022-12-27T05:09:02.199Z,9.37
2022-12-27T05:11:47.352Z,32.10
2022-12-27T05:14:15.191Z,28.30
2022-12-27T05:16:44.290Z,17.00
2022-12-27T05:19:12.899Z,6.30
2022-12-27T05:22:03.929Z,1.40
2022-12-27T05:24:49.412Z,19.53
2022-12-27T05:27:16.461Z,2.20
2022-12-27T05:29:43.024Z,3.37
2022-12-27T05:32:12.992Z,2.93
2022-12-27T05:34:40.356Z,1.77
2022-12-27T05:37:06.782Z,2.90
2022-12-27T05:39:33.251Z,4.07
2022-12-27T05:41:59.734Z,1.20
2022-12-27T05:44:26.489Z,1.20
2022-12-27T05:46:54.385Z,3.00
2022-12-27T05:49:20.828Z,1.83
2022-12-27T05:51:47.619Z,1.30
2022-12-27T05:54:14.127Z,0.90
2022-12-27T05:56:41.214Z,0.83
2022-12-27T05:59:08.157Z,1.73
2022-12-27T06:01:34.928Z,1.37
2022-12-27T06:04:01.938Z,8.13
2022-12-27T06:06:28.935Z,6.93
2022-12-27T06:08:55.455Z,8.17
2022-12-27T06:11:21.985Z,9.60
2022-12-27T06:13:53.466Z,8.33
2022-12-27T06:16:21.039Z,5.13
2022-12-27T06:18:47.556Z,6.80
2022-12-27T06:21:16.950Z,3.53
2022-12-27T06:23:45.120Z,2.73
2022-12-27T06:26:23.220Z,2.33
2022-12-27T06:28:50.604Z,1.33
2022-12-27T06:31:18.918Z,3.57
2022-12-27T06:33:46.531Z,0.80
2022-12-27T06:36:14.909Z,0.77
2022-12-27T06:38:41.372Z,4.10
2022-12-27T06:41:10.391Z,0.90
2022-12-27T06:43:37.013Z,1.60
2022-12-27T06:46:06.263Z,1.27
2022-12-27T06:48:32.786Z,0.93
2022-12-27T06:50:59.310Z,1.23
2022-12-27T06:53:25.767Z,3.07
2022-12-27T06:55:52.177Z,1.23
2022-12-27T06:58:18.668Z,0.70
2022-12-27T07:00:45.160Z,4.93
2022-12-27T07:03:11.848Z,2.77
2022-12-27T07:05:38.543Z,0.70
2022-12-27T07:08:05.787Z,1.10
2022-12-27T07:10:32.530Z,1.93
2022-12-27T07:12:59.248Z,1.63
2022-12-27T07:15:25.690Z,0.90
2022-12-27T07:17:52.129Z,2.63
2022-12-27T07:20:18.663Z,0.90
2022-12-27T07:22:45.104Z,1.80
2022-12-27T07:25:11.473Z,0.80
2022-12-27T07:27:38.034Z,0.70
2022-12-27T07:30:05.462Z,1.20
2022-12-27T07:32:31.890Z,1.80
2022-12-27T07:34:58.321Z,1.03
2022-12-27T07:37:24.766Z,1.87
2022-12-27T07:40:00.061Z,1.30
2022-12-27T07:42:28.625Z,4.93
2022-12-27T07:44:55.285Z,1.93
2022-12-27T07:47:21.728Z,3.10
2022-12-27T07:49:48.108Z,1.23
2022-12-27T07:52:14.513Z,1.93
2022-12-27T07:54:41.703Z,1.20
2022-12-27T07:57:08.221Z,1.03
2022-12-27T07:59:34.623Z,2.67
2022-12-27T08:02:04.096Z,3.70
2022-12-27T08:04:31.947Z,1.20
2022-12-27T08:07:07.803Z,1.67
2022-12-27T08:09:36.967Z,1.27
2022-12-27T08:12:03.910Z,2.30
2022-12-27T08:14:30.609Z,0.83
2022-12-27T08:16:59.685Z,1.60
2022-12-27T08:19:26.100Z,5.20
2022-12-27T08:21:52.454Z,0.87
2022-12-27T08:24:18.942Z,1.70
2022-12-27T08:26:45.445Z,3.47
2022-12-27T08:29:11.818Z,0.90
2022-12-27T08:31:38.225Z,1.63
2022-12-27T08:34:04.873Z,1.00
2022-12-27T08:39:18.368Z,2.17
2022-12-27T08:41:45.038Z,1.03
2022-12-27T08:44:11.851Z,1.40
2022-12-27T08:46:38.733Z,1.00
2022-12-27T08:49:05.988Z,3.63
2022-12-27T08:51:40.318Z,1.30
2022-12-27T08:54:07.840Z,0.87
2022-12-27T08:56:34.282Z,2.60
2022-12-27T08:59:00.784Z,1.17
2022-12-27T09:01:27.518Z,1.30
2022-12-27T09:03:54.258Z,2.00
2022-12-27T09:06:22.367Z,2.13
2022-12-27T09:08:49.873Z,6.47
2022-12-27T09:11:24.523Z,12.13
2022-12-27T09:13:51.100Z,1.23
2022-12-27T09:16:20.263Z,7.70
2022-12-27T09:18:52.435Z,0.77
2022-12-27T09:21:20.191Z,2.93
2022-12-27T09:23:47.781Z,6.07
2022-12-27T09:26:16.978Z,2.53
2022-12-27T09:28:43.765Z,1.10
2022-12-27T09:31:11.760Z,3.30
2022-12-27T09:33:38.549Z,2.87
2022-12-27T09:36:07.413Z,4.43
2022-12-27T09:38:34.658Z,2.87
2022-12-27T09:41:04.913Z,3.90
2022-12-27T09:43:34.458Z,1.23
2022-12-27T09:46:02.383Z,2.10
2022-12-27T09:48:36.770Z,3.37
2022-12-27T09:51:25.714Z,2.43
2022-12-27T09:53:59.475Z,1.00
2022-12-27T09:56:47.349Z,1.17
2022-12-27T09:59:29.003Z,0.80
2022-12-27T10:01:55.853Z,4.17
2022-12-27T10:04:22.558Z,1.63
2022-12-27T10:06:48.955Z,3.70
2022-12-27T10:09:27.656Z,2.07
2022-12-27T10:12:31.594Z,1.33
2022-12-27T10:15:28.082Z,1.60
2022-12-27T10:18:08.863Z,1.43
2022-12-27T10:20:54.592Z,0.80
2022-12-27T10:23:24.733Z,1.27
2022-12-27T10:26:04.895Z,3.10
2022-12-27T10:28:46.405Z,1.70
2022-12-27T10:31:18.515Z,0.90
2022-12-27T10:33:46.235Z,1.23
2022-12-27T10:36:15.561Z,1.10
2022-12-27T10:38:42.253Z,4.10
2022-12-27T10:41:38.309Z,4.50
2022-12-27T10:44:10.993Z,0.90
2022-12-27T10:46:38.288Z,0.60
2022-12-27T10:49:26.421Z,1.50
2022-12-27T10:51:56.922Z,0.70
2022-12-27T10:54:30.221Z,1.30
2022-12-27T10:56:57.377Z,0.73
2022-12-27T10:59:26.046Z,3.20
2022-12-27T11:02:02.399Z,1.60
2022-12-27T11:04:30.575Z,1.00
2022-12-27T11:07:00.012Z,2.47
2022-12-27T11:09:37.664Z,1.17
2022-12-27T11:12:26.110Z,1.47
2022-12-27T11:15:00.964Z,0.80
2022-12-27T11:17:29.309Z,1.90
2022-12-27T11:19:58.741Z,1.63
2022-12-27T11:22:25.897Z,3.23
2022-12-27T11:24:53.657Z,0.50
2022-12-27T11:27:25.675Z,3.07
2022-12-27T11:29:54.149Z,0.80
2022-12-27T11:32:23.297Z,0.63
2022-12-27T11:34:52.723Z,1.73
2022-12-27T11:37:21.217Z,0.70
2022-12-27T11:39:53.299Z,0.93
2022-12-27T11:42:29.056Z,0.97
2022-12-27T11:45:06.880Z,0.60
2022-12-27T11:47:51.355Z,2.40
2022-12-27T11:50:27.267Z,1.37
2022-12-27T11:52:59.051Z,0.70
2022-12-27T11:55:47.029Z,0.73
2022-12-27T11:58:38.026Z,2.37
2022-12-27T12:01:25.610Z,2.07
2022-12-27T12:04:25.641Z,1.10
2022-12-27T12:07:12.194Z,1.97
2022-12-27T12:09:56.781Z,1.37
2022-12-27T12:12:35.443Z,0.60
2022-12-27T12:15:23.201Z,1.40
2022-12-27T12:18:01.557Z,1.30
2022-12-27T12:21:08.517Z,1.60
2022-12-27T12:24:14.555Z,0.70
2022-12-27T12:27:19.307Z,0.60
2022-12-27T12:30:11.767Z,2.13
2022-12-27T12:33:14.465Z,1.50
2022-12-27T12:36:01.707Z,0.60
2022-12-27T12:38:48.513Z,1.33
2022-12-27T12:41:53.382Z,2.07
2022-12-27T12:44:41.266Z,0.63
2022-12-27T12:47:31.555Z,2.53
2022-12-27T12:50:13.142Z,0.77
2022-12-27T12:53:18.076Z,5.97
2022-12-27T12:55:58.892Z,0.90
2022-12-27T12:58:41.643Z,1.00
2022-12-27T13:01:08.217Z,1.20
2022-12-27T13:03:48.201Z,4.03
2022-12-27T13:06:40.358Z,0.87
2022-12-27T13:09:30.179Z,1.73
2022-12-27T13:12:09.911Z,1.27
2022-12-27T13:15:08.866Z,2.10
2022-12-27T13:17:54.362Z,2.77
2022-12-27T13:20:40.148Z,2.63
2022-12-27T13:23:44.117Z,1.53
2022-12-27T13:26:21.048Z,4.17
2022-12-27T13:28:58.821Z,2.27
2022-12-27T13:31:34.839Z,1.13
2022-12-27T13:34:14.591Z,1.07
2022-12-27T13:37:08.975Z,0.80
2022-12-27T13:39:43.016Z,1.40
2022-12-27T13:42:44.280Z,1.10
2022-12-27T13:45:38.066Z,1.10
2022-12-27T13:48:33.872Z,1.20
2022-12-27T13:51:31.661Z,0.70
2022-12-27T13:54:06.091Z,2.37
2022-12-27T13:56:54.479Z,2.70
2022-12-27T13:59:49.573Z,1.07
2022-12-27T14:02:38.571Z,0.70
2022-12-27T14:05:23.003Z,1.00
2022-12-27T14:08:17.439Z,1.23
2022-12-27T14:10:55.233Z,2.33
2022-12-27T14:13:45.426Z,4.77
2022-12-27T14:16:59.067Z,2.97
2022-12-27T14:19:47.722Z,1.03
2022-12-27T14:22:37.302Z,2.10
2022-12-27T14:25:25.642Z,1.63
2022-12-27T14:28:21.637Z,1.73
2022-12-27T14:30:51.153Z,1.23
2022-12-27T14:33:44.909Z,2.63
2022-12-27T14:36:41.886Z,2.13
2022-12-27T14:39:31.508Z,1.20
2022-12-27T14:42:29.058Z,0.97
2022-12-27T14:45:49.079Z,2.27
2022-12-27T14:48:54.009Z,2.70
2022-12-27T14:52:10.539Z,1.60
2022-12-27T14:55:10.842Z,2.00
2022-12-27T14:57:46.235Z,2.03
2022-12-27T15:00:19.854Z,1.07
2022-12-27T15:03:09.661Z,1.17
2022-12-27T15:05:56.073Z,2.47
2022-12-27T15:08:56.237Z,2.93
2022-12-27T15:11:43.652Z,6.60
2022-12-27T15:14:37.063Z,1.00
2022-12-27T15:17:25.810Z,1.70
2022-12-27T15:20:11.218Z,2.87
2022-12-27T15:22:53.549Z,3.47
2022-12-27T15:25:22.230Z,2.40
2022-12-27T15:28:07.250Z,2.87
2022-12-27T15:30:51.750Z,1.37
2022-12-27T15:33:36.560Z,1.00
2022-12-27T15:36:06.584Z,1.60
2022-12-27T15:38:53.848Z,2.27
2022-12-27T15:41:30.368Z,2.03
2022-12-27T15:44:15.224Z,1.20
2022-12-27T15:47:26.697Z,1.63
2022-12-27T15:50:30.847Z,2.83
2022-12-27T15:53:18.096Z,1.53
2022-12-27T15:55:57.046Z,3.33
2022-12-27T15:58:24.285Z,4.93
2022-12-27T16:01:21.842Z,5.77
2022-12-27T16:03:52.559Z,8.03
2022-12-27T16:06:34.452Z,10.10
2022-12-27T16:09:25.882Z,5.33
2022-12-27T16:12:07.569Z,2.70
2022-12-27T16:14:36.727Z,3.40
2022-12-27T16:17:24.896Z,2.07
2022-12-27T16:19:56.491Z,2.07
2022-12-27T16:22:29.072Z,1.50
2022-12-27T16:24:56.148Z,1.83
2022-12-27T16:27:29.558Z,3.47
2022-12-27T16:29:56.909Z,1.53
2022-12-27T16:32:25.860Z,2.63
2022-12-27T16:34:57.957Z,3.13
2022-12-27T16:37:44.463Z,1.57
2022-12-27T16:40:26.779Z,3.17
2022-12-27T16:42:56.151Z,2.50
2022-12-27T16:45:37.720Z,2.83
2022-12-27T16:48:22.797Z,1.50
2022-12-27T16:50:57.121Z,6.17
2022-12-27T16:53:38.636Z,2.10
2022-12-27T16:56:14.565Z,5.93
2022-12-27T16:58:41.179Z,1.93
2022-12-27T17:01:26.230Z,2.10
2022-12-27T17:03:54.527Z,2.20
2022-12-27T17:06:31.696Z,5.17
2022-12-27T17:09:08.390Z,5.57
2022-12-27T17:11:41.383Z,3.23
2022-12-27T17:14:19.431Z,2.13
2022-12-27T17:16:48.618Z,3.43
2022-12-27T17:19:19.538Z,3.07
2022-12-27T17:21:46.811Z,2.10
2022-12-27T17:24:20.944Z,6.10
2022-12-27T17:27:08.839Z,1.63
2022-12-27T17:30:15.073Z,2.43
2022-12-27T17:33:16.759Z,1.50
2022-12-27T17:36:08.942Z,2.13
2022-12-27T17:38:55.272Z,3.00
2022-12-27T17:42:02.187Z,1.43
2022-12-27T17:44:40.656Z,3.97
2022-12-27T17:47:16.888Z,2.90
2022-12-27T17:49:43.344Z,3.50
2022-12-27T17:52:35.253Z,4.47
2022-12-27T17:55:39.823Z,2.63
2022-12-27T17:58:16.023Z,3.60
2022-12-27T18:01:01.169Z,5.40
2022-12-27T18:03:35.724Z,3.83
2022-12-27T18:06:02.456Z,1.97
2022-12-27T18:08:32.661Z,1.80
2022-12-27T18:11:00.693Z,2.53
2022-12-27T18:13:29.990Z,2.27
2022-12-27T18:15:57.323Z,2.30
2022-12-27T18:18:28.346Z,1.90
2022-12-27T18:20:58.141Z,1.90
2022-12-27T18:23:24.732Z,2.07
2022-12-27T18:26:14.337Z,2.30
2022-12-27T18:28:41.819Z,2.27
2022-12-27T18:31:24.557Z,2.87
2022-12-27T18:33:53.992Z,2.20
2022-12-27T18:36:46.573Z,3.43
2022-12-27T18:39:27.017Z,4.03
2022-12-27T18:41:54.206Z,4.40
2022-12-27T18:44:27.693Z,2.60
2022-12-27T18:46:58.364Z,2.60
2022-12-27T18:49:27.561Z,1.63
2022-12-27T18:51:55.092Z,2.27
2022-12-27T18:54:27.829Z,3.33
2022-12-27T18:56:56.280Z,3.90
2022-12-27T18:59:27.950Z,4.87
2022-12-27T19:01:56.984Z,3.00
2022-12-27T19:04:33.276Z,1.63
2022-12-27T19:07:11.685Z,3.87
2022-12-27T19:09:58.068Z,1.93
2022-12-27T19:12:34.065Z,2.33
2022-12-27T19:15:01.705Z,3.53
2022-12-27T19:17:31.114Z,2.20
2022-12-27T19:20:06.938Z,2.00
2022-12-27T19:22:46.267Z,6.33
2022-12-27T19:25:33.930Z,13.90
2022-12-27T19:28:09.503Z,2.53
2022-12-27T19:30:47.885Z,5.70
2022-12-27T19:33:22.716Z,3.63
2022-12-27T19:35:49.179Z,2.33
2022-12-27T19:38:21.048Z,2.03
2022-12-27T19:43:27.398Z,6.03
2022-12-27T19:45:54.157Z,5.50
2022-12-27T19:48:20.718Z,4.37
2022-12-27T19:50:53.110Z,1.87
2022-12-27T19:53:28.760Z,3.23
2022-12-27T19:55:55.149Z,1.77
2022-12-27T19:58:23.421Z,2.03
2022-12-27T20:00:50.135Z,3.50
2022-12-27T20:03:16.909Z,1.80
2022-12-27T20:06:14.860Z,4.60
2022-12-27T20:08:50.503Z,1.93
2022-12-27T20:11:19.300Z,2.70
2022-12-27T20:13:46.070Z,2.50
2022-12-27T20:16:14.509Z,2.87
2022-12-27T20:18:41.535Z,8.90
2022-12-27T20:21:12.151Z,3.27
2022-12-27T20:23:38.895Z,2.63
2022-12-27T20:26:05.367Z,6.60
2022-12-27T20:28:32.969Z,4.37
2022-12-27T20:30:59.579Z,1.80
2022-12-27T20:33:26.195Z,4.60
2022-12-27T20:35:57.342Z,3.13
2022-12-27T20:38:24.938Z,6.53
2022-12-27T20:40:51.684Z,1.87
2022-12-27T20:43:18.631Z,5.87
2022-12-27T20:45:46.259Z,2.10
2022-12-27T20:48:12.996Z,2.07
2022-12-27T20:50:40.210Z,2.20
2022-12-27T20:53:07.223Z,4.93
2022-12-27T20:55:34.400Z,3.07
2022-12-27T20:58:01.397Z,4.83
2022-12-27T21:00:28.209Z,1.60
2022-12-27T21:02:54.820Z,1.57
2022-12-27T21:05:21.393Z,5.07
2022-12-27T21:07:47.963Z,3.07
2022-12-27T21:10:14.983Z,3.20
2022-12-27T21:12:41.580Z,1.33
2022-12-27T21:15:08.606Z,3.03
2022-12-27T21:17:35.074Z,3.67
2022-12-27T21:20:01.712Z,7.27
2022-12-27T21:22:28.267Z,1.53
2022-12-27T21:24:54.757Z,2.13
2022-12-27T21:27:21.155Z,3.60
2022-12-27T21:29:47.850Z,2.40
2022-12-27T21:32:14.460Z,2.80
2022-12-27T21:34:41.301Z,6.13
2022-12-27T21:37:12.985Z,4.17
2022-12-27T21:39:40.078Z,3.13
2022-12-27T21:42:06.614Z,1.93
2022-12-27T21:44:35.419Z,2.87
2022-12-27T21:47:02.216Z,3.93
2022-12-27T21:49:29.070Z,2.97
2022-12-27T21:51:55.749Z,6.13
2022-12-27T21:54:22.251Z,2.53
2022-12-27T21:56:48.783Z,2.77
2022-12-27T21:59:15.341Z,5.63
2022-12-27T22:01:51.941Z,2.87
2022-12-27T22:04:22.182Z,1.50
2022-12-27T22:06:48.863Z,4.17
2022-12-27T22:09:16.176Z,5.83
2022-12-27T22:11:42.612Z,1.97
2022-12-27T22:14:09.109Z,1.40
2022-12-27T22:16:38.021Z,3.33
2022-12-27T22:19:09.123Z,2.27
2022-12-27T22:21:36.560Z,1.37
2022-12-27T22:24:04.460Z,1.40
2022-12-27T22:26:33.825Z,1.87
2022-12-27T22:29:00.403Z,1.57
2022-12-27T22:31:32.931Z,3.63
2022-12-27T22:33:59.773Z,5.83
2022-12-27T22:36:27.132Z,3.17
2022-12-27T22:38:57.811Z,2.67
2022-12-27T22:41:29.509Z,7.33
2022-12-27T22:44:07.763Z,1.53
2022-12-27T22:49:21.454Z,1.27
2022-12-27T22:51:48.037Z,6.13
2022-12-27T22:54:14.526Z,2.10
2022-12-27T22:56:42.282Z,1.30
2022-12-27T22:59:11.632Z,2.20
2022-12-27T23:01:38.804Z,2.27
2022-12-27T23:04:06.333Z,3.33
2022-12-27T23:06:35.160Z,1.60
2022-12-27T23:09:03.871Z,1.93
2022-12-27T23:11:35.578Z,1.47
2022-12-27T23:14:05.643Z,2.60
2022-12-27T23:16:39.709Z,1.40
2022-12-27T23:19:06.729Z,2.10
2022-12-27T23:21:33.284Z,1.17
2022-12-27T23:23:59.784Z,1.13
2022-12-27T23:26:27.030Z,1.20
2022-12-27T23:28:53.671Z,1.63
2022-12-27T23:31:22.025Z,3.50
2022-12-27T23:33:49.592Z,2.60
2022-12-27T23:36:16.623Z,2.57
2022-12-27T23:38:44.044Z,4.07
2022-12-27T23:41:15.143Z,0.90
2022-12-27T23:43:56.983Z,2.27
2022-12-27T23:46:27.591Z,1.70
2022-12-27T23:48:54.674Z,2.37
2022-12-27T23:51:21.654Z,2.27
2022-12-27T23:53:48.100Z,1.17
2022-12-27T23:56:16.286Z,1.07
2022-12-27T23:58:43.884Z,1.23
